sensor_id;sensor_type;location;lat;lon;timestamp;P1;durP1;ratioP1;P2;durP2;ratioP2
12451;SDS011;6291;48.924;12.204;2022-07-29T00:04:39;5.75;;;2.90;;
12451;SDS011;6291;48.924;12.204;2022-07-29T00:09:43;3.67;;;2.90;;
12451;SDS011;6291;48.924;12.204;2022-07-29T00:14:54;4.38;;;2.75;;
12451;SDS011;6291;48.924;12.204;2022-07-29T00:19:58;3.00;;;2.72;;
12451;SDS011;6291;48.924;12.204;2022-07-29T00:25:01;3.10;;;2.35;;
12451;SDS011;6291;48.924;12.204;2022-07-29T00:30:07;3.38;;;2.95;;
12451;SDS011;6291;48.924;12.204;2022-07-29T00:35:11;6.45;;;5.75;;
12451;SDS011;6291;48.924;12.204;2022-07-29T00:40:33;5.30;;;4.10;;
12451;SDS011;6291;48.924;12.204;2022-07-29T00:45:41;3.47;;;3.10;;
12451;SDS011;6291;48.924;12.204;2022-07-29T00:50:45;4.13;;;3.30;;
12451;SDS011;6291;48.924;12.204;2022-07-29T00:55:49;4.60;;;3.30;;
12451;SDS011;6291;48.924;12.204;2022-07-29T01:00:54;4.30;;;3.40;;
12451;SDS011;6291;48.924;12.204;2022-07-29T01:05:57;4.95;;;3.30;;
12451;SDS011;6291;48.924;12.204;2022-07-29T01:11:02;3.40;;;3.10;;
12451;SDS011;6291;48.924;12.204;2022-07-29T01:16:10;3.78;;;3.40;;
12451;SDS011;6291;48.924;12.204;2022-07-29T01:21:34;4.10;;;3.20;;
12451;SDS011;6291;48.924;12.204;2022-07-29T01:26:54;3.80;;;2.97;;
12451;SDS011;6291;48.924;12.204;2022-07-29T01:32:10;3.40;;;3.10;;
12451;SDS011;6291;48.924;12.204;2022-07-29T01:37:29;3.80;;;2.80;;
12451;SDS011;6291;48.924;12.204;2022-07-29T01:42:38;4.10;;;3.15;;
12451;SDS011;6291;48.924;12.204;2022-07-29T01:47:49;3.28;;;2.97;;
12451;SDS011;6291;48.924;12.204;2022-07-29T01:53:00;4.50;;;3.10;;
12451;SDS011;6291;48.924;12.204;2022-07-29T01:58:06;3.00;;;2.80;;
12451;SDS011;6291;48.924;12.204;2022-07-29T02:03:12;3.40;;;3.00;;
12451;SDS011;6291;48.924;12.204;2022-07-29T02:08:18;5.05;;;3.28;;
12451;SDS011;6291;48.924;12.204;2022-07-29T02:13:23;4.50;;;3.13;;
12451;SDS011;6291;48.924;12.204;2022-07-29T02:18:30;3.88;;;3.03;;
12451;SDS011;6291;48.924;12.204;2022-07-29T02:23:34;3.50;;;2.92;;
12451;SDS011;6291;48.924;12.204;2022-07-29T02:28:52;3.47;;;3.15;;
12451;SDS011;6291;48.924;12.204;2022-07-29T02:34:00;3.73;;;3.10;;
12451;SDS011;6291;48.924;12.204;2022-07-29T02:39:05;3.60;;;3.30;;
12451;SDS011;6291;48.924;12.204;2022-07-29T02:44:12;4.13;;;3.53;;
12451;SDS011;6291;48.924;12.204;2022-07-29T02:49:21;4.30;;;3.42;;
12451;SDS011;6291;48.924;12.204;2022-07-29T02:54:41;4.88;;;3.58;;
12451;SDS011;6291;48.924;12.204;2022-07-29T02:59:49;3.87;;;3.47;;
12451;SDS011;6291;48.924;12.204;2022-07-29T03:04:56;3.63;;;3.33;;
12451;SDS011;6291;48.924;12.204;2022-07-29T03:10:02;4.10;;;3.70;;
12451;SDS011;6291;48.924;12.204;2022-07-29T03:15:13;4.05;;;3.60;;
12451;SDS011;6291;48.924;12.204;2022-07-29T03:20:18;3.83;;;3.40;;
12451;SDS011;6291;48.924;12.204;2022-07-29T03:25:22;3.87;;;3.30;;
12451;SDS011;6291;48.924;12.204;2022-07-29T03:30:25;3.60;;;3.30;;
12451;SDS011;6291;48.924;12.204;2022-07-29T03:35:30;3.85;;;3.40;;
12451;SDS011;6291;48.924;12.204;2022-07-29T03:40:35;4.15;;;3.50;;
12451;SDS011;6291;48.924;12.204;2022-07-29T03:45:44;4.78;;;4.28;;
12451;SDS011;6291;48.924;12.204;2022-07-29T03:50:53;4.70;;;4.20;;
12451;SDS011;6291;48.924;12.204;2022-07-29T03:55:58;5.57;;;3.60;;
12451;SDS011;6291;48.924;12.204;2022-07-29T04:01:04;5.38;;;3.45;;
12451;SDS011;6291;48.924;12.204;2022-07-29T04:06:09;5.30;;;3.70;;
12451;SDS011;6291;48.924;12.204;2022-07-29T04:11:12;4.43;;;3.80;;
12451;SDS011;6291;48.924;12.204;2022-07-29T04:16:15;4.35;;;3.95;;
12451;SDS011;6291;48.924;12.204;2022-07-29T04:21:20;4.85;;;3.88;;
12451;SDS011;6291;48.924;12.204;2022-07-29T04:26:24;3.97;;;3.53;;
12451;SDS011;6291;48.924;12.204;2022-07-29T04:31:27;4.43;;;3.73;;
12451;SDS011;6291;48.924;12.204;2022-07-29T04:36:32;5.33;;;3.90;;
12451;SDS011;6291;48.924;12.204;2022-07-29T04:41:35;4.20;;;3.65;;
12451;SDS011;6291;48.924;12.204;2022-07-29T04:46:39;4.20;;;3.80;;
12451;SDS011;6291;48.924;12.204;2022-07-29T04:51:43;4.90;;;3.60;;
12451;SDS011;6291;48.924;12.204;2022-07-29T04:56:46;5.80;;;3.87;;
12451;SDS011;6291;48.924;12.204;2022-07-29T05:01:50;4.10;;;3.70;;
12451;SDS011;6291;48.924;12.204;2022-07-29T05:06:54;6.80;;;5.40;;
12451;SDS011;6291;48.924;12.204;2022-07-29T05:11:58;4.28;;;3.63;;
12451;SDS011;6291;48.924;12.204;2022-07-29T05:17:01;4.40;;;3.38;;
12451;SDS011;6291;48.924;12.204;2022-07-29T05:22:06;5.13;;;3.33;;
12451;SDS011;6291;48.924;12.204;2022-07-29T05:27:09;3.72;;;3.33;;
12451;SDS011;6291;48.924;12.204;2022-07-29T05:32:12;3.97;;;3.37;;
12451;SDS011;6291;48.924;12.204;2022-07-29T05:37:17;4.43;;;3.10;;
12451;SDS011;6291;48.924;12.204;2022-07-29T05:42:21;5.03;;;3.20;;
12451;SDS011;6291;48.924;12.204;2022-07-29T05:47:24;3.33;;;2.70;;
12451;SDS011;6291;48.924;12.204;2022-07-29T05:52:29;3.70;;;3.10;;
12451;SDS011;6291;48.924;12.204;2022-07-29T05:57:32;4.13;;;2.73;;
12451;SDS011;6291;48.924;12.204;2022-07-29T06:02:36;5.05;;;3.30;;
12451;SDS011;6291;48.924;12.204;2022-07-29T06:07:40;2.63;;;2.42;;
12451;SDS011;6291;48.924;12.204;2022-07-29T06:12:51;2.83;;;2.60;;
12451;SDS011;6291;48.924;12.204;2022-07-29T06:17:54;4.32;;;2.50;;
12451;SDS011;6291;48.924;12.204;2022-07-29T06:23:01;4.88;;;2.80;;
12451;SDS011;6291;48.924;12.204;2022-07-29T06:28:05;2.90;;;2.40;;
12451;SDS011;6291;48.924;12.204;2022-07-29T06:33:09;3.97;;;2.60;;
12451;SDS011;6291;48.924;12.204;2022-07-29T06:38:19;4.28;;;2.60;;
12451;SDS011;6291;48.924;12.204;2022-07-29T06:43:32;4.70;;;2.47;;
12451;SDS011;6291;48.924;12.204;2022-07-29T06:48:53;4.82;;;2.40;;
12451;SDS011;6291;48.924;12.204;2022-07-29T06:53:58;5.43;;;2.33;;
12451;SDS011;6291;48.924;12.204;2022-07-29T06:59:04;3.03;;;2.40;;
12451;SDS011;6291;48.924;12.204;2022-07-29T07:04:08;5.30;;;2.50;;
12451;SDS011;6291;48.924;12.204;2022-07-29T07:09:13;2.88;;;2.58;;
12451;SDS011;6291;48.924;12.204;2022-07-29T07:14:16;4.90;;;2.78;;
12451;SDS011;6291;48.924;12.204;2022-07-29T07:19:21;4.20;;;2.77;;
12451;SDS011;6291;48.924;12.204;2022-07-29T07:24:25;3.35;;;2.38;;
12451;SDS011;6291;48.924;12.204;2022-07-29T07:29:29;5.88;;;2.60;;
12451;SDS011;6291;48.924;12.204;2022-07-29T07:34:32;4.95;;;2.70;;
12451;SDS011;6291;48.924;12.204;2022-07-29T07:39:37;5.00;;;2.80;;
12451;SDS011;6291;48.924;12.204;2022-07-29T07:44:40;3.70;;;2.33;;
12451;SDS011;6291;48.924;12.204;2022-07-29T07:50:04;4.47;;;2.47;;
12451;SDS011;6291;48.924;12.204;2022-07-29T07:55:10;4.70;;;2.40;;
12451;SDS011;6291;48.924;12.204;2022-07-29T08:00:13;2.70;;;2.40;;
12451;SDS011;6291;48.924;12.204;2022-07-29T08:05:19;2.93;;;2.07;;
12451;SDS011;6291;48.924;12.204;2022-07-29T08:10:24;2.60;;;2.05;;
12451;SDS011;6291;48.924;12.204;2022-07-29T08:15:45;3.60;;;2.10;;
12451;SDS011;6291;48.924;12.204;2022-07-29T08:20:48;2.47;;;2.00;;
12451;SDS011;6291;48.924;12.204;2022-07-29T08:25:53;3.13;;;2.60;;
12451;SDS011;6291;48.924;12.204;2022-07-29T08:30:56;4.13;;;2.40;;
12451;SDS011;6291;48.924;12.204;2022-07-29T08:35:59;2.65;;;2.33;;
12451;SDS011;6291;48.924;12.204;2022-07-29T08:41:05;2.47;;;2.20;;
12451;SDS011;6291;48.924;12.204;2022-07-29T08:46:08;3.28;;;2.25;;
12451;SDS011;6291;48.924;12.204;2022-07-29T08:51:12;2.30;;;2.10;;
12451;SDS011;6291;48.924;12.204;2022-07-29T08:56:18;2.90;;;2.27;;
12451;SDS011;6291;48.924;12.204;2022-07-29T09:01:23;2.50;;;2.10;;
12451;SDS011;6291;48.924;12.204;2022-07-29T09:06:37;3.40;;;2.20;;
12451;SDS011;6291;48.924;12.204;2022-07-29T09:11:45;3.03;;;2.13;;
12451;SDS011;6291;48.924;12.204;2022-07-29T09:16:52;3.88;;;2.28;;
12451;SDS011;6291;48.924;12.204;2022-07-29T09:21:58;2.10;;;1.90;;
12451;SDS011;6291;48.924;12.204;2022-07-29T09:27:09;3.40;;;2.20;;
12451;SDS011;6291;48.924;12.204;2022-07-29T09:32:14;2.35;;;1.75;;
12451;SDS011;6291;48.924;12.204;2022-07-29T09:37:25;4.05;;;2.40;;
12451;SDS011;6291;48.924;12.204;2022-07-29T09:42:30;2.80;;;2.00;;
12451;SDS011;6291;48.924;12.204;2022-07-29T09:47:40;3.30;;;2.10;;
12451;SDS011;6291;48.924;12.204;2022-07-29T09:52:47;2.10;;;1.83;;
12451;SDS011;6291;48.924;12.204;2022-07-29T09:57:53;2.63;;;1.70;;
12451;SDS011;6291;48.924;12.204;2022-07-29T10:02:56;2.30;;;2.05;;
12451;SDS011;6291;48.924;12.204;2022-07-29T10:08:04;3.20;;;1.98;;
12451;SDS011;6291;48.924;12.204;2022-07-29T10:13:10;3.50;;;2.00;;
12451;SDS011;6291;48.924;12.204;2022-07-29T10:18:16;2.20;;;2.00;;
12451;SDS011;6291;48.924;12.204;2022-07-29T10:23:21;1.70;;;1.60;;
12451;SDS011;6291;48.924;12.204;2022-07-29T10:28:26;1.90;;;1.60;;
12451;SDS011;6291;48.924;12.204;2022-07-29T10:33:34;1.70;;;1.60;;
12451;SDS011;6291;48.924;12.204;2022-07-29T10:38:49;1.83;;;1.63;;
12451;SDS011;6291;48.924;12.204;2022-07-29T10:44:00;2.13;;;1.92;;
12451;SDS011;6291;48.924;12.204;2022-07-29T10:49:07;2.67;;;2.20;;
12451;SDS011;6291;48.924;12.204;2022-07-29T10:54:15;1.65;;;1.55;;
12451;SDS011;6291;48.924;12.204;2022-07-29T10:59:26;2.07;;;1.80;;
12451;SDS011;6291;48.924;12.204;2022-07-29T11:10:22;2.33;;;1.83;;
12451;SDS011;6291;48.924;12.204;2022-07-29T11:15:51;3.28;;;2.05;;
12451;SDS011;6291;48.924;12.204;2022-07-29T11:20:55;2.70;;;1.70;;
12451;SDS011;6291;48.924;12.204;2022-07-29T11:31:35;3.20;;;1.80;;
12451;SDS011;6291;48.924;12.204;2022-07-29T11:42:38;3.10;;;1.88;;
12451;SDS011;6291;48.924;12.204;2022-07-29T11:47:51;2.00;;;1.83;;
12451;SDS011;6291;48.924;12.204;2022-07-29T11:52:58;3.03;;;1.90;;
12451;SDS011;6291;48.924;12.204;2022-07-29T11:58:09;2.17;;;1.80;;
12451;SDS011;6291;48.924;12.204;2022-07-29T12:03:23;2.20;;;1.60;;
12451;SDS011;6291;48.924;12.204;2022-07-29T12:08:39;2.20;;;1.60;;
12451;SDS011;6291;48.924;12.204;2022-07-29T12:13:46;1.50;;;1.40;;
12451;SDS011;6291;48.924;12.204;2022-07-29T12:18:58;1.40;;;1.30;;
12451;SDS011;6291;48.924;12.204;2022-07-29T12:24:07;2.55;;;1.60;;
12451;SDS011;6291;48.924;12.204;2022-07-29T12:29:14;1.70;;;1.60;;
12451;SDS011;6291;48.924;12.204;2022-07-29T12:34:37;2.90;;;1.37;;
12451;SDS011;6291;48.924;12.204;2022-07-29T12:39:42;1.55;;;1.45;;
12451;SDS011;6291;48.924;12.204;2022-07-29T12:44:47;2.35;;;1.40;;
12451;SDS011;6291;48.924;12.204;2022-07-29T12:50:08;1.97;;;1.30;;
12451;SDS011;6291;48.924;12.204;2022-07-29T12:55:13;1.90;;;1.00;;
12451;SDS011;6291;48.924;12.204;2022-07-29T13:00:21;2.40;;;1.10;;
12451;SDS011;6291;48.924;12.204;2022-07-29T13:05:40;1.50;;;1.10;;
12451;SDS011;6291;48.924;12.204;2022-07-29T13:10:50;1.50;;;1.10;;
12451;SDS011;6291;48.924;12.204;2022-07-29T13:16:04;2.30;;;1.37;;
12451;SDS011;6291;48.924;12.204;2022-07-29T13:21:14;1.57;;;1.07;;
12451;SDS011;6291;48.924;12.204;2022-07-29T13:26:19;1.60;;;0.90;;
12451;SDS011;6291;48.924;12.204;2022-07-29T13:31:23;1.23;;;1.08;;
12451;SDS011;6291;48.924;12.204;2022-07-29T13:36:28;1.55;;;0.80;;
12451;SDS011;6291;48.924;12.204;2022-07-29T13:41:32;1.67;;;0.90;;
12451;SDS011;6291;48.924;12.204;2022-07-29T13:46:37;1.40;;;0.90;;
12451;SDS011;6291;48.924;12.204;2022-07-29T13:51:42;0.90;;;0.90;;
12451;SDS011;6291;48.924;12.204;2022-07-29T13:56:46;1.20;;;1.10;;
12451;SDS011;6291;48.924;12.204;2022-07-29T14:01:49;1.13;;;0.80;;
12451;SDS011;6291;48.924;12.204;2022-07-29T14:06:54;1.73;;;0.90;;
12451;SDS011;6291;48.924;12.204;2022-07-29T14:12:04;1.33;;;1.00;;
12451;SDS011;6291;48.924;12.204;2022-07-29T14:17:08;1.35;;;0.90;;
12451;SDS011;6291;48.924;12.204;2022-07-29T14:22:13;1.25;;;1.02;;
12451;SDS011;6291;48.924;12.204;2022-07-29T14:27:16;1.70;;;1.10;;
12451;SDS011;6291;48.924;12.204;2022-07-29T14:32:38;1.25;;;1.00;;
12451;SDS011;6291;48.924;12.204;2022-07-29T14:37:43;1.48;;;1.00;;
12451;SDS011;6291;48.924;12.204;2022-07-29T14:42:46;1.63;;;1.20;;
12451;SDS011;6291;48.924;12.204;2022-07-29T14:47:50;2.10;;;1.30;;
12451;SDS011;6291;48.924;12.204;2022-07-29T14:53:00;3.05;;;1.30;;
12451;SDS011;6291;48.924;12.204;2022-07-29T14:58:03;2.42;;;1.50;;
12451;SDS011;6291;48.924;12.204;2022-07-29T15:03:14;2.67;;;1.60;;
12451;SDS011;6291;48.924;12.204;2022-07-29T15:08:26;1.83;;;1.30;;
12451;SDS011;6291;48.924;12.204;2022-07-29T15:13:31;1.60;;;1.30;;
12451;SDS011;6291;48.924;12.204;2022-07-29T15:18:35;2.95;;;1.40;;
12451;SDS011;6291;48.924;12.204;2022-07-29T15:23:41;1.35;;;1.20;;
12451;SDS011;6291;48.924;12.204;2022-07-29T15:28:44;1.48;;;1.38;;
12451;SDS011;6291;48.924;12.204;2022-07-29T15:33:47;1.70;;;1.40;;
12451;SDS011;6291;48.924;12.204;2022-07-29T15:38:58;2.08;;;1.42;;
12451;SDS011;6291;48.924;12.204;2022-07-29T15:44:03;2.10;;;1.20;;
12451;SDS011;6291;48.924;12.204;2022-07-29T15:49:06;1.63;;;1.27;;
12451;SDS011;6291;48.924;12.204;2022-07-29T15:54:11;1.83;;;1.30;;
12451;SDS011;6291;48.924;12.204;2022-07-29T15:59:14;1.70;;;1.00;;
12451;SDS011;6291;48.924;12.204;2022-07-29T16:04:23;2.08;;;1.20;;
12451;SDS011;6291;48.924;12.204;2022-07-29T16:09:27;2.00;;;1.60;;
12451;SDS011;6291;48.924;12.204;2022-07-29T16:14:31;1.60;;;1.13;;
12451;SDS011;6291;48.924;12.204;2022-07-29T16:19:35;1.77;;;1.20;;
12451;SDS011;6291;48.924;12.204;2022-07-29T16:24:40;1.97;;;1.23;;
12451;SDS011;6291;48.924;12.204;2022-07-29T16:29:43;2.53;;;1.60;;
12451;SDS011;6291;48.924;12.204;2022-07-29T16:34:48;1.67;;;1.50;;
12451;SDS011;6291;48.924;12.204;2022-07-29T16:39:53;2.13;;;1.50;;
12451;SDS011;6291;48.924;12.204;2022-07-29T16:44:56;1.80;;;1.40;;
12451;SDS011;6291;48.924;12.204;2022-07-29T16:49:59;2.65;;;1.50;;
12451;SDS011;6291;48.924;12.204;2022-07-29T16:55:05;4.50;;;1.70;;
12451;SDS011;6291;48.924;12.204;2022-07-29T17:00:09;3.10;;;1.48;;
12451;SDS011;6291;48.924;12.204;2022-07-29T17:05:14;2.17;;;1.33;;
12451;SDS011;6291;48.924;12.204;2022-07-29T17:10:19;2.70;;;1.42;;
12451;SDS011;6291;48.924;12.204;2022-07-29T17:15:23;2.70;;;1.30;;
12451;SDS011;6291;48.924;12.204;2022-07-29T17:20:27;3.72;;;2.40;;
12451;SDS011;6291;48.924;12.204;2022-07-29T17:25:31;4.43;;;1.40;;
12451;SDS011;6291;48.924;12.204;2022-07-29T17:30:35;3.05;;;1.50;;
12451;SDS011;6291;48.924;12.204;2022-07-29T17:35:38;1.80;;;1.40;;
12451;SDS011;6291;48.924;12.204;2022-07-29T17:41:00;2.17;;;1.30;;
12451;SDS011;6291;48.924;12.204;2022-07-29T17:46:09;3.95;;;1.60;;
12451;SDS011;6291;48.924;12.204;2022-07-29T17:51:13;2.30;;;1.60;;
12451;SDS011;6291;48.924;12.204;2022-07-29T17:56:18;2.10;;;1.80;;
12451;SDS011;6291;48.924;12.204;2022-07-29T18:01:21;2.30;;;1.90;;
12451;SDS011;6291;48.924;12.204;2022-07-29T18:06:24;2.10;;;1.90;;
12451;SDS011;6291;48.924;12.204;2022-07-29T18:11:29;3.33;;;2.05;;
12451;SDS011;6291;48.924;12.204;2022-07-29T18:16:33;2.10;;;1.90;;
12451;SDS011;6291;48.924;12.204;2022-07-29T18:21:36;2.10;;;1.90;;
12451;SDS011;6291;48.924;12.204;2022-07-29T18:26:57;2.55;;;2.13;;
12451;SDS011;6291;48.924;12.204;2022-07-29T18:32:01;2.10;;;1.90;;
12451;SDS011;6291;48.924;12.204;2022-07-29T18:37:04;2.10;;;2.00;;
12451;SDS011;6291;48.924;12.204;2022-07-29T18:42:09;2.55;;;2.00;;
12451;SDS011;6291;48.924;12.204;2022-07-29T18:47:12;4.60;;;3.00;;
12451;SDS011;6291;48.924;12.204;2022-07-29T18:52:16;3.37;;;2.33;;
12451;SDS011;6291;48.924;12.204;2022-07-29T18:57:21;2.67;;;2.23;;
12451;SDS011;6291;48.924;12.204;2022-07-29T19:02:44;3.00;;;2.70;;
12451;SDS011;6291;48.924;12.204;2022-07-29T19:07:48;3.37;;;2.80;;
12451;SDS011;6291;48.924;12.204;2022-07-29T19:12:52;3.72;;;2.90;;
12451;SDS011;6291;48.924;12.204;2022-07-29T19:17:57;4.00;;;3.60;;
12451;SDS011;6291;48.924;12.204;2022-07-29T19:23:01;4.53;;;3.30;;
12451;SDS011;6291;48.924;12.204;2022-07-29T19:28:06;4.78;;;4.05;;
12451;SDS011;6291;48.924;12.204;2022-07-29T19:33:10;3.40;;;3.00;;
12451;SDS011;6291;48.924;12.204;2022-07-29T19:38:16;4.95;;;3.38;;
12451;SDS011;6291;48.924;12.204;2022-07-29T19:43:20;3.73;;;3.37;;
12451;SDS011;6291;48.924;12.204;2022-07-29T19:48:44;3.33;;;3.00;;
12451;SDS011;6291;48.924;12.204;2022-07-29T19:53:47;3.33;;;3.03;;
12451;SDS011;6291;48.924;12.204;2022-07-29T19:58:52;5.03;;;3.10;;
12451;SDS011;6291;48.924;12.204;2022-07-29T20:03:56;3.40;;;3.10;;
12451;SDS011;6291;48.924;12.204;2022-07-29T20:08:59;4.57;;;3.47;;
12451;SDS011;6291;48.924;12.204;2022-07-29T20:14:03;4.25;;;3.08;;
12451;SDS011;6291;48.924;12.204;2022-07-29T20:19:07;4.60;;;3.30;;
12451;SDS011;6291;48.924;12.204;2022-07-29T20:24:10;4.27;;;3.63;;
12451;SDS011;6291;48.924;12.204;2022-07-29T20:29:15;3.72;;;3.20;;
12451;SDS011;6291;48.924;12.204;2022-07-29T20:34:19;3.60;;;3.10;;
12451;SDS011;6291;48.924;12.204;2022-07-29T20:39:22;3.50;;;3.20;;
12451;SDS011;6291;48.924;12.204;2022-07-29T20:44:27;3.70;;;3.10;;
12451;SDS011;6291;48.924;12.204;2022-07-29T20:49:31;4.13;;;3.40;;
12451;SDS011;6291;48.924;12.204;2022-07-29T20:54:34;3.30;;;3.10;;
12451;SDS011;6291;48.924;12.204;2022-07-29T20:59:39;4.13;;;3.00;;
12451;SDS011;6291;48.924;12.204;2022-07-29T21:04:46;3.00;;;2.70;;
12451;SDS011;6291;48.924;12.204;2022-07-29T21:09:49;3.05;;;2.20;;
12451;SDS011;6291;48.924;12.204;2022-07-29T21:14:54;2.60;;;2.40;;
12451;SDS011;6291;48.924;12.204;2022-07-29T21:19:58;2.65;;;2.30;;
12451;SDS011;6291;48.924;12.204;2022-07-29T21:25:01;2.57;;;2.37;;
12451;SDS011;6291;48.924;12.204;2022-07-29T21:30:07;3.88;;;2.85;;
12451;SDS011;6291;48.924;12.204;2022-07-29T21:35:12;2.90;;;2.70;;
12451;SDS011;6291;48.924;12.204;2022-07-29T21:40:35;3.03;;;2.83;;
12451;SDS011;6291;48.924;12.204;2022-07-29T21:45:41;3.50;;;3.20;;
12451;SDS011;6291;48.924;12.204;2022-07-29T21:50:48;3.80;;;3.50;;
12451;SDS011;6291;48.924;12.204;2022-07-29T21:55:52;4.77;;;3.97;;
12451;SDS011;6291;48.924;12.204;2022-07-29T22:00:57;4.40;;;4.00;;
12451;SDS011;6291;48.924;12.204;2022-07-29T22:06:00;4.38;;;3.95;;
12451;SDS011;6291;48.924;12.204;2022-07-29T22:11:04;4.63;;;4.20;;
12451;SDS011;6291;48.924;12.204;2022-07-29T22:16:08;4.70;;;4.30;;
12451;SDS011;6291;48.924;12.204;2022-07-29T22:21:15;4.80;;;4.40;;
12451;SDS011;6291;48.924;12.204;2022-07-29T22:26:18;5.10;;;4.60;;
12451;SDS011;6291;48.924;12.204;2022-07-29T22:31:23;5.25;;;4.85;;
12451;SDS011;6291;48.924;12.204;2022-07-29T22:36:26;5.63;;;5.07;;
12451;SDS011;6291;48.924;12.204;2022-07-29T22:41:30;5.50;;;5.00;;
12451;SDS011;6291;48.924;12.204;2022-07-29T22:46:35;5.60;;;5.10;;
12451;SDS011;6291;48.924;12.204;2022-07-29T22:51:38;6.10;;;5.60;;
12451;SDS011;6291;48.924;12.204;2022-07-29T22:56:41;6.18;;;5.60;;
12451;SDS011;6291;48.924;12.204;2022-07-29T23:01:46;6.63;;;5.90;;
12451;SDS011;6291;48.924;12.204;2022-07-29T23:06:49;6.53;;;5.72;;
12451;SDS011;6291;48.924;12.204;2022-07-29T23:11:53;6.20;;;5.68;;
12451;SDS011;6291;48.924;12.204;2022-07-29T23:16:57;5.88;;;5.38;;
12451;SDS011;6291;48.924;12.204;2022-07-29T23:22:01;6.18;;;5.60;;
12451;SDS011;6291;48.924;12.204;2022-07-29T23:27:04;6.32;;;5.80;;
12451;SDS011;6291;48.924;12.204;2022-07-29T23:32:09;6.40;;;5.90;;
12451;SDS011;6291;48.924;12.204;2022-07-29T23:37:12;6.30;;;5.80;;
12451;SDS011;6291;48.924;12.204;2022-07-29T23:42:15;7.60;;;6.90;;
12451;SDS011;6291;48.924;12.204;2022-07-29T23:47:20;8.20;;;7.40;;
12451;SDS011;6291;48.924;12.204;2022-07-29T23:52:23;9.48;;;8.00;;
12451;SDS011;6291;48.924;12.204;2022-07-29T23:57:27;9.00;;;8.10;;
